Laval-Ouest, Canada
Current Conditions -  °F | °C
As of 5:00 AM on Sunday 25 Jan 2015 (Local Time) from CYUL Reporting Station
Blowing Snow Blowing Snow  
Wind Chill: -1°   Ceiling: 8000
Heat Index: 16°   Visibility: 15mi
Dew Point:   Wind: 18mph
Humidity: 62%   Direction: 300°WNW
Pressure: 29.5"   Gusts: 30mph
Location:  45.55°N, 73.87°W
Report Text: CYUL 251000Z 30016G26KT 15SM DRSN SCT025 BKN080 M09/M15 A2950 RMK SC4AC3 PRESRR SLP990
Loading
Personal Weather Stations






























Interactive Weather Map New forecast layout! Learn more

10-Day Weather Forecast

Advertisements
Track Severe Weather on mobile